Time;durP1;ratioP1;P1;durP2;ratioP2;P2;SDS_P1;SDS_P2;PMS_P1;PMS_P2;Temp;Humidity;BMP_temperature;BMP_pressure;BME280_temperature;BME280_humidity;BME280_pressure;Samples;Min_cycle;Max_cycle;Signal;HPM_P1;HPM_P2
2023/04/09 00:01:29;;;;;;;53.13;30.83;;;4.90;99.90;;;;;;5054404;28;20286;-67
2023/04/09 00:03:56;;;;;;;55.43;31.10;;;5.00;99.90;;;;;;5044307;28;20707;-67
2023/04/09 00:06:23;;;;;;;71.17;35.53;;;5.00;99.90;;;;;;5047534;28;20195;-68
2023/04/09 00:08:51;;;;;;;111.70;52.17;;;4.90;99.90;;;;;;5045043;28;20861;-67
2023/04/09 00:11:21;;;;;;;82.33;39.13;;;4.90;99.90;;;;;;5045786;28;20671;-67
2023/04/09 00:13:48;;;;;;;72.23;37.73;;;5.00;99.90;;;;;;5035443;28;20199;-67
2023/04/09 00:16:15;;;;;;;63.33;32.90;;;4.90;99.90;;;;;;5046030;28;20206;-66
2023/04/09 00:18:42;;;;;;;52.17;30.47;;;4.90;99.90;;;;;;5045407;28;20234;-66
2023/04/09 00:21:10;;;;;;;57.80;32.40;;;5.00;99.90;;;;;;5045864;28;20195;-66
2023/04/09 00:23:37;;;;;;;50.73;30.17;;;4.90;96.90;;;;;;5047321;28;20221;-66
2023/04/09 00:26:06;;;;;;;55.80;31.87;;;4.90;97.50;;;;;;5047184;28;20203;-66
2023/04/09 00:28:34;;;;;;;49.20;31.20;;;4.90;99.90;;;;;;5046109;28;20207;-69
2023/04/09 00:31:02;;;;;;;50.20;30.07;;;4.90;99.90;;;;;;5026401;28;20605;-65
2023/04/09 00:33:29;;;;;;;48.73;29.00;;;4.80;99.90;;;;;;5045854;28;20234;-65
2023/04/09 00:35:56;;;;;;;45.53;28.90;;;4.80;99.90;;;;;;5046161;28;20844;-65
2023/04/09 00:38:23;;;;;;;42.60;26.97;;;4.60;99.90;;;;;;5061897;28;20671;-65
2023/04/09 00:40:51;;;;;;;39.07;25.80;;;4.60;99.90;;;;;;5044184;28;20192;-66
2023/04/09 00:43:18;;;;;;;46.67;26.23;;;4.50;99.90;;;;;;5035333;28;20671;-66
2023/04/09 00:45:46;;;;;;;41.40;26.23;;;4.40;99.90;;;;;;5046652;28;20204;-66
2023/04/09 00:48:15;;;;;;;42.50;26.20;;;4.40;99.90;;;;;;5047929;28;20204;-66
2023/04/09 00:50:42;;;;;;;52.40;28.33;;;4.40;99.90;;;;;;5047826;28;20195;-66
2023/04/09 00:53:11;;;;;;;51.10;27.77;;;4.40;99.90;;;;;;5049318;28;20195;-66
2023/04/09 00:55:41;;;;;;;63.63;31.67;;;4.50;99.90;;;;;;5031470;28;20231;-67
2023/04/09 00:58:08;;;;;;;74.60;33.93;;;4.50;99.90;;;;;;5043011;28;20720;-67
2023/04/09 01:00:35;;;;;;;99.67;39.53;;;4.40;99.90;;;;;;5045784;28;20200;-67
2023/04/09 01:03:05;;;;;;;88.90;38.63;;;4.50;99.90;;;;;;5046777;28;20222;-67
2023/04/09 01:06:00;;;;;;;80.70;37.37;;;4.50;99.90;;;;;;5047603;28;20183;-66
2023/04/09 01:08:48;;;;;;;78.20;36.47;;;4.50;99.90;;;;;;5040624;28;20205;-67
2023/04/09 01:11:42;;;;;;;57.13;31.20;;;4.50;99.90;;;;;;5030201;28;20549;-68
2023/04/09 01:14:18;;;;;;;56.77;30.57;;;4.40;99.90;;;;;;5048083;28;20226;-69
2023/04/09 01:16:51;;;;;;;54.30;30.30;;;4.50;99.90;;;;;;5049163;28;20801;-70
2023/04/09 01:19:53;;;;;;;57.10;30.03;;;4.50;99.90;;;;;;5046179;28;20230;-72
2023/04/09 01:22:48;;;;;;;56.03;29.10;;;4.40;91.60;;;;;;5046330;28;20213;-71
2023/04/09 01:25:31;;;;;;;53.27;28.90;;;4.40;75.60;;;;;;5058160;28;20225;-68
2023/04/09 01:28:30;;;;;;;44.13;25.70;;;4.40;66.90;;;;;;5044802;28;20223;-69
2023/04/09 01:31:01;;;;;;;41.43;24.87;;;4.30;66.20;;;;;;5047810;28;20201;-70
2023/04/09 01:33:30;;;;;;;40.97;24.60;;;4.30;76.00;;;;;;5047625;28;20191;-69
2023/04/09 01:35:59;;;;;;;41.70;25.87;;;4.30;64.60;;;;;;5031455;28;20219;-70
2023/04/09 01:38:27;;;;;;;41.90;24.73;;;4.20;86.00;;;;;;5050278;28;20215;-71
2023/04/09 01:40:56;;;;;;;40.07;24.67;;;4.20;99.90;;;;;;5050817;28;20223;-69
2023/04/09 01:43:24;;;;;;;39.80;25.43;;;4.20;99.90;;;;;;5050895;28;20803;-70
2023/04/09 01:45:51;;;;;;;39.43;25.27;;;4.20;99.90;;;;;;5049647;28;20290;-69
2023/04/09 01:48:19;;;;;;;36.20;24.93;;;4.10;99.90;;;;;;5047625;28;20683;-69
2023/04/09 01:50:48;;;;;;;42.97;25.90;;;4.10;99.90;;;;;;5057462;28;20203;-70
2023/04/09 01:53:18;;;;;;;40.60;26.50;;;4.10;99.90;;;;;;5059239;28;20208;-70
2023/04/09 01:55:45;;;;;;;43.17;25.93;;;4.00;99.90;;;;;;5049463;28;20243;-71
2023/04/09 01:58:12;;;;;;;39.40;24.00;;;4.00;99.90;;;;;;5039695;28;20245;-70
2023/04/09 02:00:47;;;;;;;42.27;25.43;;;4.00;99.90;;;;;;5030292;28;20199;-70
2023/04/09 02:03:28;;;;;;;36.53;23.43;;;4.00;99.90;;;;;;5048455;28;20255;-69
2023/04/09 02:06:08;;;;;;;40.23;24.37;;;3.90;99.90;;;;;;5046091;28;20241;-68
2023/04/09 02:08:36;;;;;;;38.47;24.03;;;3.90;99.90;;;;;;5045675;28;20204;-69
2023/04/09 02:11:09;;;;;;;40.00;24.50;;;3.80;99.90;;;;;;5045814;28;20208;-69
2023/04/09 02:13:39;;;;;;;37.63;23.20;;;3.80;99.90;;;;;;5048859;28;20619;-69
2023/04/09 02:16:08;;;;;;;40.27;23.73;;;3.70;99.90;;;;;;5050632;28;20294;-69
2023/04/09 02:18:35;;;;;;;36.73;23.87;;;3.80;99.90;;;;;;5057238;28;20230;-68
2023/04/09 02:21:04;;;;;;;37.37;24.27;;;3.80;99.90;;;;;;5057827;28;20199;-68
2023/04/09 02:23:32;;;;;;;40.50;24.23;;;3.70;99.90;;;;;;5050547;28;20651;-72
2023/04/09 02:26:00;;;;;;;40.73;24.93;;;3.70;99.90;;;;;;5065459;28;20298;-68
2023/04/09 02:28:27;;;;;;;41.53;26.20;;;3.70;99.90;;;;;;5025501;28;20691;-66
2023/04/09 02:30:57;;;;;;;40.00;24.57;;;3.60;99.90;;;;;;5051006;28;20290;-66
2023/04/09 02:33:24;;;;;;;44.90;25.47;;;3.60;99.90;;;;;;5029677;28;20191;-66
2023/04/09 02:35:51;;;;;;;38.93;23.03;;;3.50;99.90;;;;;;5048265;28;20243;-67
2023/04/09 02:38:18;;;;;;;40.53;23.73;;;3.50;99.90;;;;;;5050649;28;20275;-67
2023/04/09 02:40:46;;;;;;;37.57;24.67;;;3.50;99.90;;;;;;5032287;28;20192;-68
2023/04/09 02:43:13;;;;;;;37.67;24.57;;;3.40;99.90;;;;;;5048613;28;20211;-67
2023/04/09 02:45:40;;;;;;;39.90;24.07;;;3.40;99.90;;;;;;5049963;28;20846;-66
2023/04/09 02:48:06;;;;;;;40.23;24.03;;;3.40;99.90;;;;;;5047680;28;20218;-66
2023/04/09 02:50:34;;;;;;;47.50;28.17;;;3.40;99.90;;;;;;5034077;28;20208;-66
2023/04/09 02:53:02;;;;;;;38.13;23.77;;;3.40;99.90;;;;;;5047563;28;20196;-66
2023/04/09 02:55:29;;;;;;;42.40;26.43;;;3.40;99.90;;;;;;5032517;28;20211;-66
2023/04/09 02:57:56;;;;;;;45.43;27.43;;;3.30;99.90;;;;;;5048290;28;20195;-70
2023/04/09 03:00:23;;;;;;;39.17;25.10;;;3.20;99.90;;;;;;5050468;28;20199;-66
2023/04/09 03:02:50;;;;;;;40.03;25.53;;;3.20;99.90;;;;;;5031957;28;20874;-66
2023/04/09 03:05:18;;;;;;;43.47;25.83;;;3.20;99.90;;;;;;5049465;28;20675;-66
2023/04/09 03:07:46;;;;;;;44.97;28.13;;;3.20;99.90;;;;;;5048596;28;20233;-68
2023/04/09 03:10:13;;;;;;;43.70;27.30;;;3.10;99.90;;;;;;5048243;28;20204;-66
2023/04/09 03:12:43;;;;;;;42.37;27.60;;;3.10;99.90;;;;;;5045258;28;20196;-65
2023/04/09 03:15:10;;;;;;;43.10;25.23;;;3.10;99.90;;;;;;5049013;28;20250;-65
2023/04/09 03:17:38;;;;;;;41.17;25.43;;;3.10;99.90;;;;;;5048517;28;20237;-65
2023/04/09 03:20:06;;;;;;;39.90;24.20;;;3.10;99.90;;;;;;5047915;28;20199;-66
2023/04/09 03:22:36;;;;;;;44.93;26.10;;;3.00;99.90;;;;;;5048865;28;20210;-73
2023/04/09 03:25:10;;;;;;;40.90;24.83;;;3.00;99.90;;;;;;5038907;28;20199;-66
2023/04/09 03:27:37;;;;;;;46.27;26.73;;;3.00;99.90;;;;;;5040903;28;20679;-67
2023/04/09 03:30:04;;;;;;;40.93;24.23;;;2.90;99.90;;;;;;5032912;28;20211;-66
2023/04/09 03:32:38;;;;;;;36.77;25.07;;;2.90;99.90;;;;;;5031872;28;20298;-66
2023/04/09 03:35:06;;;;;;;34.57;23.03;;;2.80;99.90;;;;;;5046402;28;20318;-66
2023/04/09 03:37:33;;;;;;;37.37;22.10;;;2.80;99.90;;;;;;5047136;28;20206;-66
2023/04/09 03:40:01;;;;;;;37.80;22.27;;;2.80;99.90;;;;;;5047943;28;20199;-65
2023/04/09 03:42:30;;;;;;;38.17;24.13;;;2.70;99.90;;;;;;5041815;28;20207;-65
2023/04/09 03:44:57;;;;;;;34.17;22.87;;;2.70;99.90;;;;;;5030063;28;20611;-66
2023/04/09 03:47:34;;;;;;;44.17;24.23;;;2.70;99.90;;;;;;5049076;28;20261;-66
2023/04/09 03:50:01;;;;;;;35.90;23.57;;;2.60;99.90;;;;;;5047389;28;20286;-64
2023/04/09 03:52:41;;;;;;;35.77;23.30;;;2.60;99.90;;;;;;5047490;28;20219;-65
2023/04/09 03:55:09;;;;;;;39.60;23.50;;;2.60;99.90;;;;;;5049096;28;20253;-68
2023/04/09 03:57:36;;;;;;;41.07;24.43;;;2.60;99.90;;;;;;5048975;28;20221;-64
2023/04/09 04:00:08;;;;;;;41.60;23.93;;;2.50;99.90;;;;;;5047330;28;20328;-65
2023/04/09 04:02:49;;;;;;;41.77;24.57;;;2.50;99.90;;;;;;5046023;28;20222;-65
2023/04/09 04:05:26;;;;;;;44.20;24.97;;;2.50;99.90;;;;;;5044704;28;20435;-66
2023/04/09 04:07:56;;;;;;;39.47;23.60;;;2.50;99.90;;;;;;5045612;28;20274;-65
2023/04/09 04:10:27;;;;;;;34.83;21.53;;;2.40;1.00;;;;;;5045831;28;20541;-66
2023/04/09 04:12:54;;;;;;;34.53;21.97;;;2.50;1.00;;;;;;5044183;28;20241;-66
2023/04/09 04:15:28;;;;;;;37.20;22.07;;;2.40;1.00;;;;;;5048627;28;20218;-65
2023/04/09 04:17:55;;;;;;;35.27;22.30;;;2.40;1.00;;;;;;5029369;28;20662;-65
2023/04/09 04:20:36;;;;;;;42.50;26.27;;;2.40;1.00;;;;;;5046820;28;20301;-65
2023/04/09 04:23:09;;;;;;;46.43;27.63;;;2.40;1.00;;;;;;5049496;28;20213;-66
2023/04/09 04:25:44;;;;;;;40.73;25.33;;;2.40;1.00;;;;;;5048749;28;20204;-67
2023/04/09 04:28:15;;;;;;;50.73;28.87;;;2.30;1.00;;;;;;5042366;28;20206;-68
2023/04/09 04:30:42;;;;;;;54.90;30.03;;;2.30;1.00;;;;;;5047214;28;20643;-66
2023/04/09 04:33:10;;;;;;;54.43;29.20;;;2.40;1.00;;;;;;5033682;28;20203;-65
2023/04/09 04:35:48;;;;;;;60.83;33.40;;;2.30;1.00;;;;;;5035213;28;20281;-65
2023/04/09 04:38:41;;;;;;;47.03;27.97;;;2.30;1.00;;;;;;5047448;28;20214;-66
2023/04/09 04:41:17;;;;;;;57.23;31.17;;;2.30;1.00;;;;;;5048035;28;20213;-69
2023/04/09 04:43:51;;;;;;;48.17;26.47;;;2.30;1.00;;;;;;5050119;28;20612;-69
2023/04/09 04:46:22;;;;;;;52.93;29.83;;;2.30;1.00;;;;;;5048816;28;20655;-70
2023/04/09 04:48:49;;;;;;;59.73;31.93;;;2.40;1.00;;;;;;5050524;28;20233;-69
2023/04/09 04:51:16;;;;;;;62.03;34.67;;;2.30;1.00;;;;;;5030462;28;20299;-68
2023/04/09 04:53:56;;;;;;;65.13;32.93;;;2.30;1.00;;;;;;5048425;28;20696;-68
2023/04/09 04:56:23;;;;;;;65.87;36.53;;;2.50;99.90;;;;;;5047465;28;20215;-68
2023/04/09 04:59:16;;;;;;;64.83;34.83;;;2.60;99.90;;;;;;5048636;28;20200;-69
2023/04/09 05:01:56;;;;;;;54.73;31.60;;;2.50;99.90;;;;;;5048370;28;20277;-70
2023/04/09 05:04:25;;;;;;;64.30;35.73;;;2.50;94.50;;;;;;5047561;28;20240;-69
2023/04/09 05:06:54;;;;;;;54.43;32.97;;;2.50;27.90;;;;;;5048529;28;20298;-76
2023/04/09 05:09:22;;;;;;;59.43;32.97;;;2.50;24.80;;;;;;5030014;28;20210;-68
2023/04/09 05:12:02;;;;;;;57.20;33.87;;;2.50;1.00;;;;;;5048865;28;20706;-69
2023/04/09 05:14:30;;;;;;;57.83;32.80;;;2.60;1.00;;;;;;5048327;28;20655;-67
2023/04/09 05:16:57;;;;;;;52.70;31.20;;;2.70;1.00;;;;;;5049386;28;20220;-68
2023/04/09 05:19:30;;;;;;;57.50;33.87;;;2.80;1.00;;;;;;5047502;28;20694;-67
2023/04/09 05:22:00;;;;;;;60.60;34.50;;;2.80;1.00;;;;;;5049034;28;20211;-67
2023/04/09 05:24:28;;;;;;;61.20;35.50;;;2.90;1.00;;;;;;5047522;28;20663;-67
2023/04/09 05:26:56;;;;;;;61.93;33.83;;;3.00;1.00;;;;;;5048333;28;20688;-67
2023/04/09 05:29:24;;;;;;;59.63;34.37;;;3.10;1.00;;;;;;5031207;28;20196;-68
2023/04/09 05:31:51;;;;;;;57.17;33.70;;;3.20;1.00;;;;;;5049512;28;20683;-67
2023/04/09 05:34:35;;;;;;;59.90;33.03;;;3.30;1.00;;;;;;5052641;28;20690;-67
2023/04/09 05:37:02;;;;;;;54.93;30.80;;;3.40;1.00;;;;;;5049643;28;20651;-67
2023/04/09 05:39:31;;;;;;;54.63;31.30;;;3.50;99.90;;;;;;5058261;28;20196;-67
2023/04/09 05:41:59;;;;;;;46.50;28.70;;;3.50;99.90;;;;;;5065603;28;20219;-69
2023/04/09 05:44:53;;;;;;;44.17;27.60;;;3.50;99.90;;;;;;5027714;28;20214;-69
2023/04/09 05:47:20;;;;;;;71.27;30.67;;;3.50;99.90;;;;;;5049048;28;20242;-68
2023/04/09 05:50:02;;;;;;;46.20;29.07;;;3.50;91.80;;;;;;5049691;28;20690;-70
2023/04/09 05:52:29;;;;;;;73.70;28.90;;;3.60;51.10;;;;;;5045523;28;20200;-70
2023/04/09 05:54:56;;;;;;;77.07;28.30;;;3.80;25.30;;;;;;5040756;28;20450;-67
2023/04/09 05:57:36;;;;;;;56.57;29.50;;;4.00;1.00;;;;;;5046940;28;20227;-68
2023/04/09 06:00:04;;;;;;;46.70;24.67;;;4.50;1.00;;;;;;5045670;28;20196;-68
2023/04/09 06:02:42;;;;;;;47.63;24.37;;;5.20;1.00;;;;;;5049686;28;20228;-69
2023/04/09 06:05:09;;;;;;;36.80;20.93;;;5.80;1.00;;;;;;5048132;28;20327;-69
2023/04/09 06:07:37;;;;;;;31.90;19.17;;;6.70;1.00;;;;;;5045747;28;20195;-69
2023/04/09 06:10:05;;;;;;;24.53;17.33;;;7.90;1.00;;;;;;5050271;28;20191;-68
2023/04/09 06:12:34;;;;;;;23.97;17.43;;;8.40;1.00;;;;;;5047791;28;20238;-69
2023/04/09 06:15:04;;;;;;;25.97;17.17;;;9.50;1.00;;;;;;5047081;28;20231;-69
2023/04/09 06:17:32;;;;;;;23.37;17.43;;;10.60;1.00;;;;;;5047964;28;20265;-69
2023/04/09 06:19:59;;;;;;;24.97;17.80;;;10.10;1.00;;;;;;5048454;28;20298;-68
2023/04/09 06:22:26;;;;;;;25.77;17.63;;;10.40;1.00;;;;;;5040586;28;20383;-68
2023/04/09 06:24:53;;;;;;;24.57;18.80;;;11.50;1.00;;;;;;5042923;28;20201;-68
2023/04/09 06:27:21;;;;;;;28.67;20.17;;;12.00;1.00;;;;;;5041472;28;20227;-68
2023/04/09 06:29:48;;;;;;;28.30;20.77;;;12.40;1.00;;;;;;5048725;28;20651;-68
2023/04/09 06:32:15;;;;;;;30.87;21.80;;;12.90;1.00;;;;;;5029167;28;20781;-67
2023/04/09 06:34:42;;;;;;;32.97;22.53;;;12.00;1.00;;;;;;5047613;28;20210;-67
2023/04/09 06:37:09;;;;;;;29.83;21.73;;;12.60;1.00;;;;;;5048816;28;20212;-68
2023/04/09 06:39:37;;;;;;;27.17;21.10;;;13.70;1.00;;;;;;5043729;28;20663;-67
2023/04/09 06:42:08;;;;;;;28.87;22.07;;;14.60;1.00;;;;;;5042559;28;20298;-67
2023/04/09 06:44:48;;;;;;;27.05;21.13;;;15.30;1.00;;;;;;5035454;28;20539;-67
2023/04/09 06:47:15;;;;;;;29.20;22.02;;;16.20;1.00;;;;;;5041522;28;20204;-68
2023/04/09 06:49:42;;;;;;;27.02;20.17;;;16.10;1.00;;;;;;5044469;28;20192;-68
2023/04/09 06:52:09;;;;;;;24.80;19.83;;;17.10;1.00;;;;;;5036550;28;20196;-67
2023/04/09 06:54:36;;;;;;;26.73;19.55;;;17.90;1.00;;;;;;5041651;28;20195;-67
2023/04/09 06:57:05;;;;;;;26.83;19.45;;;16.50;1.00;;;;;;5046189;28;20211;-68
2023/04/09 06:59:32;;;;;;;25.55;20.00;;;17.20;1.00;;;;;;5044747;28;21120;-67
2023/04/09 07:02:00;;;;;;;25.75;20.23;;;17.50;1.00;;;;;;5043242;28;20195;-67
2023/04/09 07:04:27;;;;;;;24.13;20.60;;;18.80;1.00;;;;;;5046080;28;20227;-69
2023/04/09 07:06:55;;;;;;;23.25;19.70;;;18.20;1.00;;;;;;5042363;28;20195;-67
2023/04/09 07:09:22;;;;;;;21.70;18.70;;;19.10;1.00;;;;;;5027330;28;20207;-66
2023/04/09 07:11:50;;;;;;;23.70;19.60;;;19.90;1.00;;;;;;5042528;28;20556;-67
2023/04/09 07:14:17;;;;;;;24.30;19.02;;;20.20;1.00;;;;;;5044061;28;20666;-66
2023/04/09 07:16:45;;;;;;;21.58;18.80;;;20.60;1.00;;;;;;5042640;28;20948;-67
2023/04/09 07:19:12;;;;;;;23.55;18.33;;;20.60;1.00;;;;;;5042132;28;20203;-68
2023/04/09 07:21:39;;;;;;;22.75;18.45;;;21.10;1.00;;;;;;5042679;28;20234;-66
2023/04/09 07:24:06;;;;;;;21.27;18.08;;;22.70;1.00;;;;;;5028578;28;20253;-66
2023/04/09 07:26:33;;;;;;;20.48;17.95;;;23.90;1.00;;;;;;5043367;28;20210;-66
2023/04/09 07:29:02;;;;;;;19.30;17.20;;;24.20;1.00;;;;;;5045630;28;20191;-65
2023/04/09 07:31:30;;;;;;;19.23;16.75;;;24.20;1.00;;;;;;5040653;28;20199;-65
2023/04/09 07:33:59;;;;;;;19.45;17.13;;;22.40;1.00;;;;;;5036472;28;20748;-67
2023/04/09 07:36:26;;;;;;;19.17;16.38;;;23.20;1.00;;;;;;5041011;28;20687;-66
2023/04/09 07:38:53;;;;;;;20.00;17.17;;;23.10;1.00;;;;;;5042754;28;20241;-66
2023/04/09 07:41:21;;;;;;;20.75;17.00;;;20.80;1.00;;;;;;5040910;28;20196;-65
2023/04/09 07:43:48;;;;;;;18.42;16.25;;;21.20;1.00;;;;;;5041229;28;20314;-66
2023/04/09 07:46:21;;;;;;;18.88;16.70;;;19.70;1.00;;;;;;5041757;28;20215;-66
2023/04/09 07:48:48;;;;;;;16.88;15.05;;;20.10;1.00;;;;;;5041344;28;20191;-68
2023/04/09 07:51:16;;;;;;;19.75;16.50;;;22.10;1.00;;;;;;5052700;28;20659;-67
2023/04/09 07:53:44;;;;;;;20.83;16.38;;;21.20;1.00;;;;;;5045673;28;20643;-68
2023/04/09 07:56:11;;;;;;;20.25;16.92;;;19.40;1.00;;;;;;5045696;28;20648;-67
2023/04/09 07:58:38;;;;;;;18.52;16.52;;;19.50;1.00;;;;;;5046409;28;20559;-67
2023/04/09 08:01:05;;;;;;;19.55;17.10;;;20.30;1.00;;;;;;5044456;28;20721;-67
2023/04/09 08:03:32;;;;;;;20.42;16.95;;;22.70;1.00;;;;;;5045681;28;20255;-67
2023/04/09 08:06:00;;;;;;;19.90;17.02;;;23.00;1.00;;;;;;5043113;28;20357;-68
2023/04/09 08:08:27;;;;;;;19.90;16.48;;;23.20;1.00;;;;;;5034337;28;20204;-67
2023/04/09 08:10:54;;;;;;;18.25;15.80;;;22.10;1.00;;;;;;5044234;28;21038;-67
2023/04/09 08:13:24;;;;;;;23.40;18.83;;;23.30;1.00;;;;;;5044215;28;20647;-67
2023/04/09 08:15:51;;;;;;;20.95;17.63;;;20.10;1.00;;;;;;5044246;28;20249;-67
2023/04/09 08:18:18;;;;;;;20.25;17.08;;;20.90;1.00;;;;;;5044240;28;20310;-67
2023/04/09 08:20:45;;;;;;;19.08;16.05;;;23.50;1.00;;;;;;5042792;28;20195;-67
2023/04/09 08:23:13;;;;;;;19.65;16.83;;;25.90;1.00;;;;;;5044737;28;20708;-67
2023/04/09 08:25:40;;;;;;;23.02;16.77;;;23.90;1.00;;;;;;5044751;28;20245;-67
2023/04/09 08:28:07;;;;;;;18.70;16.70;;;25.20;1.00;;;;;;5044191;28;20199;-67
2023/04/09 08:30:34;;;;;;;19.55;17.45;;;24.40;1.00;;;;;;5045365;28;20203;-67
2023/04/09 08:33:01;;;;;;;18.33;15.95;;;23.50;1.00;;;;;;5033860;28;20231;-67
2023/04/09 08:35:31;;;;;;;18.95;16.92;;;25.00;1.00;;;;;;5041476;28;20253;-67
2023/04/09 08:37:58;;;;;;;19.63;17.50;;;26.40;1.00;;;;;;5042816;28;20204;-67
2023/04/09 08:40:25;;;;;;;18.80;16.80;;;25.20;1.00;;;;;;5045086;28;20286;-67
2023/04/09 08:42:57;;;;;;;19.08;17.08;;;24.80;1.00;;;;;;5036511;28;20222;-68
2023/04/09 08:45:24;;;;;;;20.15;16.55;;;24.40;1.00;;;;;;5044585;28;20195;-68
2023/04/09 08:47:51;;;;;;;18.88;16.85;;;26.10;1.00;;;;;;5043397;28;20668;-67
2023/04/09 08:50:19;;;;;;;18.92;16.88;;;25.80;1.00;;;;;;5045892;28;20283;-68
2023/04/09 08:52:47;;;;;;;18.73;16.80;;;23.40;1.00;;;;;;5044794;28;20199;-65
2023/04/09 08:55:14;;;;;;;19.33;16.27;;;22.60;1.00;;;;;;5044253;28;20286;-66
2023/04/09 08:57:42;;;;;;;20.58;16.80;;;24.00;1.00;;;;;;5026455;28;20225;-66
2023/04/09 09:00:09;;;;;;;19.27;16.65;;;26.00;1.00;;;;;;5038333;28;20269;-66
2023/04/09 09:02:38;;;;;;;19.40;16.77;;;26.90;1.00;;;;;;5040106;28;20254;-66
2023/04/09 09:05:05;;;;;;;21.13;17.48;;;27.80;1.00;;;;;;5041225;28;20236;-66
2023/04/09 09:07:33;;;;;;;19.55;16.42;;;26.10;1.00;;;;;;5045541;28;20269;-66
2023/04/09 09:10:03;;;;;;;18.55;16.55;;;24.40;1.00;;;;;;5047954;28;20211;-66
2023/04/09 09:12:39;;;;;;;17.98;16.08;;;27.00;1.00;;;;;;5044843;28;20207;-66
2023/04/09 09:15:26;;;;;;;18.67;16.77;;;28.70;1.00;;;;;;5046229;28;20191;-66
2023/04/09 09:17:58;;;;;;;18.08;16.15;;;28.50;1.00;;;;;;5046346;28;20211;-67
2023/04/09 09:20:26;;;;;;;18.05;16.25;;;29.00;1.00;;;;;;5055496;28;20672;-68
2023/04/09 09:22:54;;;;;;;18.80;16.90;;;26.90;1.00;;;;;;5036626;28;20234;-67
2023/04/09 09:25:24;;;;;;;16.63;14.85;;;28.80;1.00;;;;;;5044433;28;20196;-67
2023/04/09 09:27:53;;;;;;;17.48;15.30;;;24.40;1.00;;;;;;5047240;28;20199;-67
2023/04/09 09:30:21;;;;;;;16.55;14.85;;;25.30;1.00;;;;;;5046419;28;20235;-66
2023/04/09 09:33:09;;;;;;;17.20;15.50;;;27.30;1.00;;;;;;5041422;28;20200;-67
2023/04/09 09:35:47;;;;;;;18.52;14.57;;;28.20;1.00;;;;;;5045792;28;20673;-67
2023/04/09 09:38:15;;;;;;;17.05;15.25;;;23.40;1.00;;;;;;5044494;28;20208;-66
2023/04/09 09:40:43;;;;;;;16.35;14.77;;;25.80;1.00;;;;;;5034536;28;20196;-67
2023/04/09 09:43:12;;;;;;;15.50;13.88;;;25.90;1.00;;;;;;5055298;28;20490;-67
2023/04/09 09:45:42;;;;;;;14.85;13.25;;;24.70;1.00;;;;;;5047633;28;20196;-67
2023/04/09 09:48:11;;;;;;;16.02;14.32;;;26.50;1.00;;;;;;5046679;28;20187;-67
2023/04/09 09:50:42;;;;;;;15.18;13.32;;;25.90;1.00;;;;;;5039812;28;20205;-67
2023/04/09 09:53:10;;;;;;;14.60;13.10;;;25.90;1.00;;;;;;5044509;28;20675;-67
2023/04/09 09:55:39;;;;;;;14.98;13.52;;;28.80;1.00;;;;;;5044130;28;20281;-67
2023/04/09 09:58:16;;;;;;;16.02;14.32;;;29.30;1.00;;;;;;5042445;28;20203;-66
2023/04/09 10:00:47;;;;;;;15.45;13.82;;;27.70;1.00;;;;;;5040759;28;20192;-68
2023/04/09 10:03:20;;;;;;;16.52;14.73;;;26.40;1.00;;;;;;5039490;28;21259;-67
2023/04/09 10:05:48;;;;;;;16.13;14.43;;;24.00;1.00;;;;;;5035262;28;20568;-69
2023/04/09 10:08:15;;;;;;;15.52;13.90;;;20.20;1.00;;;;;;5043096;28;20279;-67
2023/04/09 10:10:43;;;;;;;15.38;13.77;;;19.00;1.00;;;;;;5043852;28;20639;-68
2023/04/09 10:13:20;;;;;;;14.80;13.05;;;18.50;1.00;;;;;;5041521;28;20207;-68
2023/04/09 10:15:48;;;;;;;15.40;13.80;;;19.00;1.00;;;;;;5040649;28;20568;-68
2023/04/09 10:18:16;;;;;;;16.05;14.25;;;20.60;1.00;;;;;;5042611;28;20222;-68
2023/04/09 10:21:23;;;;;;;19.45;14.68;;;20.00;1.00;;;;;;5041832;28;20198;-68
2023/04/09 10:23:51;;;;;;;15.35;13.07;;;19.80;1.00;;;;;;5044175;28;20294;-68
2023/04/09 10:26:19;;;;;;;14.40;12.90;;;22.20;1.00;;;;;;5046665;28;20227;-69
2023/04/09 10:28:46;;;;;;;16.45;13.98;;;25.20;1.00;;;;;;5038711;28;20207;-69
2023/04/09 10:31:13;;;;;;;12.73;11.43;;;27.50;1.00;;;;;;5042578;28;20250;-69
2023/04/09 10:33:43;;;;;;;14.30;12.80;;;27.40;1.00;;;;;;5044387;28;20916;-68
2023/04/09 10:36:11;;;;;;;12.30;11.00;;;24.20;1.00;;;;;;5040530;28;20208;-69
2023/04/09 10:38:44;;;;;;;10.98;9.88;;;22.20;1.00;;;;;;5041887;28;20293;-68
2023/04/09 10:41:20;;;;;;;13.82;12.38;;;19.50;1.00;;;;;;5037598;28;20199;-67
2023/04/09 10:43:47;;;;;;;15.27;13.13;;;18.50;1.00;;;;;;5042118;28;20226;-68
2023/04/09 10:46:30;;;;;;;13.95;12.55;;;18.80;1.00;;;;;;5042234;28;20481;-66
2023/04/09 10:49:17;;;;;;;14.88;12.68;;;19.60;1.00;;;;;;5041430;28;20663;-67
2023/04/09 10:52:05;;;;;;;13.48;11.88;;;20.80;1.00;;;;;;5044332;28;20226;-67
2023/04/09 10:54:36;;;;;;;14.93;12.15;;;21.10;1.00;;;;;;5053226;28;20280;-65
2023/04/09 10:57:06;;;;;;;14.00;12.50;;;22.70;1.00;;;;;;5040208;28;20219;-67
2023/04/09 10:59:43;;;;;;;13.93;11.77;;;21.10;1.00;;;;;;5041948;28;20203;-66
2023/04/09 11:02:38;;;;;;;13.77;11.65;;;22.10;1.00;;;;;;5038712;28;20222;-66
2023/04/09 11:05:30;;;;;;;12.05;10.75;;;21.20;1.00;;;;;;5040253;28;20327;-67
2023/04/09 11:08:03;;;;;;;12.95;11.52;;;20.70;1.00;;;;;;5039523;28;20195;-66
2023/04/09 11:10:31;;;;;;;12.93;11.27;;;20.70;1.00;;;;;;5043119;28;20210;-68
2023/04/09 11:12:59;;;;;;;12.38;10.65;;;19.90;1.00;;;;;;5040516;28;20699;-65
2023/04/09 11:15:26;;;;;;;12.10;10.80;;;19.50;1.00;;;;;;5039959;28;20202;-67
2023/04/09 11:17:54;;;;;;;11.77;10.57;;;19.70;1.00;;;;;;5038636;28;20215;-67
2023/04/09 11:20:24;;;;;;;13.35;11.32;;;18.80;1.00;;;;;;5034300;28;20203;-67
2023/04/09 11:22:53;;;;;;;13.02;10.77;;;18.30;1.00;;;;;;5035580;28;20241;-67
2023/04/09 11:25:25;;;;;;;13.52;10.57;;;18.00;1.00;;;;;;5045833;28;20196;-67
2023/04/09 11:27:53;;;;;;;11.32;9.73;;;18.30;1.00;;;;;;5040845;28;20239;-68
2023/04/09 11:30:20;;;;;;;11.70;10.38;;;17.90;1.00;;;;;;5042559;28;20274;-68
2023/04/09 11:32:48;;;;;;;12.23;10.05;;;17.60;1.00;;;;;;5052377;28;20366;-67
2023/04/09 11:35:20;;;;;;;11.05;9.80;;;17.50;1.00;;;;;;5042126;28;20207;-68
2023/04/09 11:37:49;;;;;;;11.52;10.20;;;17.50;1.00;;;;;;5042849;28;20610;-68
2023/04/09 11:40:21;;;;;;;11.52;10.10;;;17.80;1.00;;;;;;5033470;28;20334;-69
2023/04/09 11:42:53;;;;;;;11.85;9.23;;;17.80;1.00;;;;;;5043220;28;20191;-68
2023/04/09 11:45:24;;;;;;;10.93;9.77;;;17.40;1.00;;;;;;5040946;28;20194;-69
2023/04/09 11:47:52;;;;;;;10.55;9.38;;;17.20;1.00;;;;;;5051237;28;20268;-69
2023/04/09 11:50:20;;;;;;;9.90;8.15;;;17.00;1.00;;;;;;5040664;28;20194;-68
2023/04/09 11:52:48;;;;;;;8.50;7.70;;;17.80;1.00;;;;;;5041850;28;20283;-67
2023/04/09 11:55:23;;;;;;;8.45;7.55;;;18.80;1.00;;;;;;5039244;28;20322;-67
2023/04/09 11:57:53;;;;;;;11.75;8.55;;;19.30;1.00;;;;;;5033328;28;20329;-67
2023/04/09 12:00:20;;;;;;;9.77;8.48;;;19.60;1.00;;;;;;5050734;28;20253;-67
2023/04/09 12:02:49;;;;;;;10.13;8.32;;;19.60;1.00;;;;;;5041844;28;20654;-69
2023/04/09 12:05:28;;;;;;;9.23;7.68;;;18.00;1.00;;;;;;5036468;28;20229;-70
2023/04/09 12:08:00;;;;;;;9.88;7.90;;;17.40;1.00;;;;;;5043903;28;20669;-67
2023/04/09 12:10:28;;;;;;;9.88;7.55;;;16.60;1.00;;;;;;5033724;28;20207;-67
2023/04/09 12:13:01;;;;;;;9.52;8.45;;;17.20;1.00;;;;;;5038572;28;20200;-67
2023/04/09 12:15:33;;;;;;;10.20;8.48;;;17.60;1.00;;;;;;5040545;28;20253;-67
2023/04/09 12:18:00;;;;;;;10.38;8.50;;;18.40;1.00;;;;;;5043064;28;20757;-67
2023/04/09 12:20:38;;;;;;;10.27;8.20;;;18.30;1.00;;;;;;5043422;28;20750;-66
2023/04/09 12:23:06;;;;;;;13.27;8.82;;;17.90;1.00;;;;;;5041203;28;20564;-69
2023/04/09 12:25:38;;;;;;;9.82;8.35;;;17.70;1.00;;;;;;5042661;28;20575;-68
2023/04/09 12:28:07;;;;;;;10.07;8.98;;;18.50;1.00;;;;;;5044579;28;20223;-69
2023/04/09 12:30:35;;;;;;;9.05;8.15;;;18.90;1.00;;;;;;5040580;28;20599;-68
2023/04/09 12:33:03;;;;;;;9.27;8.32;;;17.90;1.00;;;;;;5039499;28;20195;-68
2023/04/09 12:35:30;;;;;;;10.68;8.85;;;18.10;1.00;;;;;;5039491;28;20204;-68
2023/04/09 12:37:58;;;;;;;9.93;8.65;;;17.90;1.00;;;;;;5024752;28;20687;-68
2023/04/09 12:40:25;;;;;;;10.50;8.50;;;17.60;1.00;;;;;;5044427;28;20235;-69
2023/04/09 12:42:53;;;;;;;9.65;8.60;;;17.70;1.00;;;;;;5044776;28;20199;-67
2023/04/09 12:45:20;;;;;;;10.63;8.80;;;17.40;1.00;;;;;;5060800;28;20234;-68
2023/04/09 12:47:48;;;;;;;10.63;8.80;;;17.20;1.00;;;;;;5047858;28;20270;-67
2023/04/09 12:50:15;;;;;;;9.88;8.48;;;17.40;1.00;;;;;;5047195;28;20239;-68
2023/04/09 12:52:43;;;;;;;10.43;8.75;;;17.00;1.00;;;;;;5046827;28;20199;-67
2023/04/09 12:55:11;;;;;;;10.60;8.65;;;17.00;1.00;;;;;;5045829;28;20567;-68
2023/04/09 12:57:41;;;;;;;10.85;8.93;;;17.30;1.00;;;;;;5046015;28;20207;-68